createdAt,value
2022-11-24T00:01:31.449Z,3.13
2022-11-24T00:04:05.478Z,3.53
2022-11-24T00:06:37.293Z,3.13
2022-11-24T00:09:10.576Z,3.08
2022-11-24T00:11:42.149Z,3.31
2022-11-24T00:14:13.911Z,2.95
2022-11-24T00:16:46.802Z,2.99
2022-11-24T00:19:20.077Z,2.84
2022-11-24T00:21:52.341Z,2.68
2022-11-24T00:24:24.138Z,2.56
2022-11-24T00:26:56.730Z,2.44
2022-11-24T00:29:29.592Z,2.67
2022-11-24T00:32:02.375Z,2.46
2022-11-24T00:34:35.656Z,2.46
2022-11-24T00:37:08.770Z,2.44
2022-11-24T00:39:42.135Z,2.25
2022-11-24T00:42:14.952Z,2.48
2022-11-24T00:44:47.845Z,2.19
2022-11-24T00:47:21.336Z,2.06
2022-11-24T00:49:55.569Z,1.97
2022-11-24T00:52:28.573Z,2.10
2022-11-24T00:55:02.065Z,2.10
2022-11-24T00:57:35.502Z,2.07
2022-11-24T01:00:09.061Z,2.46
2022-11-24T01:02:42.152Z,2.37
2022-11-24T01:05:14.911Z,2.44
2022-11-24T01:07:47.843Z,2.30
2022-11-24T01:10:20.766Z,2.68
2022-11-24T01:12:54.008Z,2.44
2022-11-24T01:15:27.380Z,2.32
2022-11-24T01:18:00.040Z,2.37
2022-11-24T01:20:32.953Z,2.75
2022-11-24T01:23:06.378Z,2.68
2022-11-24T01:25:39.925Z,2.57
2022-11-24T01:28:14.213Z,2.89
2022-11-24T01:30:57.188Z,2.79
2022-11-24T01:33:30.778Z,2.65
2022-11-24T01:36:05.468Z,3.04
2022-11-24T01:38:38.280Z,3.00
2022-11-24T01:41:14.046Z,3.07
2022-11-24T01:43:47.047Z,3.24
2022-11-24T01:46:30.921Z,3.13
2022-11-24T01:49:18.852Z,3.03
2022-11-24T01:51:57.840Z,3.20
2022-11-24T01:54:41.459Z,3.20
2022-11-24T01:57:24.527Z,3.12
2022-11-24T02:00:07.406Z,2.99
2022-11-24T02:02:43.109Z,3.13
2022-11-24T02:05:22.627Z,3.07
2022-11-24T02:08:00.477Z,3.31
2022-11-24T02:10:33.442Z,3.16
2022-11-24T02:13:06.362Z,3.35
2022-11-24T02:15:39.294Z,3.12
2022-11-24T02:18:12.067Z,2.97
2022-11-24T02:20:44.901Z,2.93
2022-11-24T02:23:39.304Z,3.14
2022-11-24T02:26:30.715Z,2.95
2022-11-24T02:29:03.503Z,3.15
2022-11-24T02:31:36.494Z,3.24
2022-11-24T02:34:09.917Z,3.27
2022-11-24T02:36:42.987Z,3.52
2022-11-24T02:39:16.696Z,3.23
2022-11-24T02:42:05.135Z,3.43
2022-11-24T02:44:49.813Z,3.06
2022-11-24T02:47:23.463Z,3.13
2022-11-24T02:49:56.277Z,2.87
2022-11-24T02:52:29.026Z,3.23
2022-11-24T02:55:02.567Z,2.81
2022-11-24T02:57:36.046Z,2.76
2022-11-24T03:00:10.250Z,2.72
2022-11-24T03:02:43.140Z,2.83
2022-11-24T03:05:16.105Z,2.58
2022-11-24T03:07:49.909Z,2.62
2022-11-24T03:10:22.771Z,2.93
2022-11-24T03:12:55.546Z,2.81
2022-11-24T03:15:28.858Z,2.47
2022-11-24T03:18:02.135Z,2.25
2022-11-24T03:20:35.737Z,2.58
2022-11-24T03:23:08.898Z,2.32
2022-11-24T03:25:42.226Z,2.33
2022-11-24T03:28:14.966Z,2.45
2022-11-24T03:30:50.757Z,2.49
2022-11-24T03:33:24.404Z,2.67
2022-11-24T03:35:57.233Z,2.71
2022-11-24T03:38:30.184Z,2.52
2022-11-24T03:41:04.255Z,2.35
2022-11-24T03:43:43.153Z,2.54
2022-11-24T03:46:17.770Z,2.55
2022-11-24T03:48:51.180Z,2.46
2022-11-24T03:51:23.945Z,2.77
2022-11-24T03:53:56.653Z,2.50
2022-11-24T03:56:29.510Z,2.51
2022-11-24T03:59:02.311Z,2.99
2022-11-24T04:01:35.193Z,2.86
2022-11-24T04:04:11.343Z,2.92
2022-11-24T04:06:45.144Z,2.64
2022-11-24T04:09:18.235Z,2.80
2022-11-24T04:11:51.653Z,2.78
2022-11-24T04:14:25.047Z,2.66
2022-11-24T04:16:58.002Z,2.61
2022-11-24T04:19:30.932Z,2.69
2022-11-24T04:22:03.812Z,2.61
2022-11-24T04:24:37.277Z,2.55
2022-11-24T04:27:10.564Z,2.69
2022-11-24T04:29:43.586Z,2.62
2022-11-24T04:32:17.374Z,2.44
2022-11-24T04:34:50.593Z,2.70
2022-11-24T04:37:23.553Z,2.64
2022-11-24T04:39:56.502Z,2.34
2022-11-24T04:42:29.529Z,2.61
2022-11-24T04:45:02.744Z,2.62
2022-11-24T04:47:35.829Z,2.52
2022-11-24T04:50:09.634Z,2.64
2022-11-24T04:52:43.233Z,2.57
2022-11-24T04:55:16.284Z,2.60
2022-11-24T04:57:49.498Z,2.64
2022-11-24T05:00:22.790Z,2.86
2022-11-24T05:02:55.417Z,2.57
2022-11-24T05:05:28.388Z,2.75
2022-11-24T05:08:01.796Z,2.72
2022-11-24T05:10:35.617Z,2.65
2022-11-24T05:13:14.383Z,2.80
2022-11-24T05:15:47.330Z,2.79
2022-11-24T05:18:20.173Z,2.93
2022-11-24T05:20:53.052Z,2.87
2022-11-24T05:23:27.097Z,3.09
2022-11-24T05:26:01.333Z,2.83
2022-11-24T05:28:34.474Z,2.68
2022-11-24T05:31:07.971Z,2.92
2022-11-24T05:33:41.249Z,2.77
2022-11-24T05:36:14.109Z,3.35
2022-11-24T05:38:47.289Z,3.11
2022-11-24T05:41:20.393Z,3.07
2022-11-24T05:43:53.830Z,3.02
2022-11-24T05:46:26.829Z,2.93
2022-11-24T05:48:59.842Z,2.88
2022-11-24T05:51:32.574Z,3.07
2022-11-24T05:54:05.598Z,2.94
2022-11-24T05:56:38.717Z,2.79
2022-11-24T05:59:13.394Z,2.64
2022-11-24T06:01:46.327Z,2.57
2022-11-24T06:04:19.833Z,2.49
2022-11-24T06:06:53.609Z,2.74
2022-11-24T06:09:27.160Z,2.49
2022-11-24T06:11:59.994Z,2.64
2022-11-24T06:14:33.979Z,2.73
2022-11-24T06:17:08.126Z,2.40
2022-11-24T06:19:42.412Z,2.51
2022-11-24T06:22:15.480Z,2.64
2022-11-24T06:24:48.823Z,2.59
2022-11-24T06:27:22.797Z,2.72
2022-11-24T06:29:55.542Z,2.69
2022-11-24T06:32:28.773Z,2.70
2022-11-24T06:35:01.939Z,2.83
2022-11-24T06:37:36.346Z,2.66
2022-11-24T06:40:10.170Z,2.72
2022-11-24T06:42:49.408Z,2.46
2022-11-24T06:45:23.382Z,2.65
2022-11-24T06:47:56.608Z,2.29
2022-11-24T06:50:33.546Z,2.64
2022-11-24T06:53:07.397Z,2.67
2022-11-24T06:55:42.148Z,2.67
2022-11-24T06:58:14.998Z,2.62
2022-11-24T07:00:48.414Z,2.85
2022-11-24T07:03:23.746Z,2.84
2022-11-24T07:05:58.369Z,2.90
2022-11-24T07:08:31.599Z,2.67
2022-11-24T07:11:11.370Z,2.73
2022-11-24T07:13:46.396Z,2.44
2022-11-24T07:16:25.564Z,2.93
2022-11-24T07:18:59.722Z,2.84
2022-11-24T07:21:32.556Z,2.90
2022-11-24T07:24:05.990Z,3.09
2022-11-24T07:26:40.159Z,3.02
2022-11-24T07:29:21.112Z,2.83
2022-11-24T07:31:55.530Z,2.88
2022-11-24T07:34:29.738Z,2.90
2022-11-24T07:37:04.265Z,2.77
2022-11-24T07:39:38.176Z,2.60
2022-11-24T07:42:13.333Z,2.51
2022-11-24T07:44:46.596Z,2.55
2022-11-24T07:47:20.675Z,2.59
2022-11-24T07:49:54.803Z,2.44
2022-11-24T07:52:28.087Z,2.59
2022-11-24T07:55:01.242Z,2.69
2022-11-24T07:57:37.742Z,2.46
2022-11-24T08:00:13.500Z,2.46
2022-11-24T08:02:47.805Z,2.36
2022-11-24T08:05:22.341Z,2.59
2022-11-24T08:07:55.790Z,2.36
2022-11-24T08:10:28.680Z,2.51
2022-11-24T08:13:02.966Z,2.28
2022-11-24T08:15:36.005Z,2.53
2022-11-24T08:18:09.883Z,2.54
2022-11-24T08:20:43.257Z,2.96
2022-11-24T08:23:16.310Z,2.27
2022-11-24T08:25:55.607Z,2.38
2022-11-24T08:28:29.937Z,2.44
2022-11-24T08:31:13.261Z,2.53
2022-11-24T08:33:47.210Z,2.44
2022-11-24T08:36:21.674Z,2.33
2022-11-24T08:38:58.652Z,2.49
2022-11-24T08:41:33.084Z,2.11
2022-11-24T08:44:06.539Z,2.14
2022-11-24T08:46:40.498Z,2.25
2022-11-24T08:49:16.873Z,2.47
2022-11-24T08:51:50.980Z,2.64
2022-11-24T08:54:25.936Z,2.58
2022-11-24T08:57:00.262Z,2.50
2022-11-24T08:59:34.462Z,2.62
2022-11-24T09:02:12.390Z,2.44
2022-11-24T09:04:45.470Z,2.80
2022-11-24T09:07:19.962Z,2.69
2022-11-24T09:09:53.712Z,2.96
2022-11-24T09:12:27.961Z,2.88
2022-11-24T09:15:01.337Z,2.62
2022-11-24T09:17:34.798Z,2.76
2022-11-24T09:20:08.448Z,2.39
2022-11-24T09:22:42.836Z,2.43
2022-11-24T09:25:15.765Z,2.23
2022-11-24T09:27:51.125Z,2.45
2022-11-24T09:30:24.370Z,2.26
2022-11-24T09:32:57.781Z,2.31
2022-11-24T09:35:32.616Z,2.61
2022-11-24T09:38:06.028Z,2.47
2022-11-24T09:40:39.888Z,2.67
2022-11-24T09:43:45.827Z,2.81
2022-11-24T09:46:43.640Z,2.30
2022-11-24T09:49:42.459Z,2.09
2022-11-24T09:52:37.489Z,2.48
2022-11-24T09:55:37.027Z,2.57
2022-11-24T09:58:27.786Z,2.28
2022-11-24T10:01:29.308Z,2.37
2022-11-24T10:04:31.799Z,2.16
2022-11-24T10:07:35.579Z,2.22
2022-11-24T10:10:59.588Z,2.36
2022-11-24T10:14:36.546Z,2.79
2022-11-24T10:17:40.259Z,2.24
2022-11-24T10:20:35.886Z,2.56
2022-11-24T10:23:33.546Z,1.89
2022-11-24T10:26:34.096Z,2.47
2022-11-24T10:29:42.163Z,2.64
2022-11-24T10:32:35.286Z,2.46
2022-11-24T10:35:21.812Z,2.58
2022-11-24T10:38:20.173Z,2.58
2022-11-24T10:41:13.325Z,2.20
2022-11-24T10:43:46.661Z,2.67
2022-11-24T10:46:28.688Z,2.96
2022-11-24T10:49:05.090Z,2.52
2022-11-24T10:51:46.525Z,2.77
2022-11-24T10:54:23.417Z,2.38
2022-11-24T10:56:56.339Z,2.17
2022-11-24T10:59:37.556Z,2.54
2022-11-24T11:02:34.016Z,2.49
2022-11-24T11:05:31.860Z,2.28
2022-11-24T11:08:13.936Z,2.30
2022-11-24T11:11:08.269Z,2.52
2022-11-24T11:14:02.910Z,2.53
2022-11-24T11:16:57.337Z,2.29
2022-11-24T11:19:49.995Z,2.85
2022-11-24T11:22:33.017Z,2.53
2022-11-24T11:25:14.424Z,2.55
2022-11-24T11:27:48.653Z,2.71
2022-11-24T11:36:21.027Z,2.29
2022-11-24T11:38:54.890Z,2.34
2022-11-24T11:41:33.681Z,2.38
2022-11-24T11:44:23.534Z,2.16
2022-11-24T11:46:59.501Z,2.25
2022-11-24T11:49:38.385Z,2.19
2022-11-24T11:52:38.081Z,2.14
2022-11-24T11:55:50.053Z,2.25
2022-11-24T11:58:38.278Z,2.19
2022-11-24T12:01:39.535Z,2.31
2022-11-24T12:04:16.402Z,2.63
2022-11-24T12:07:22.461Z,2.85
2022-11-24T12:10:01.004Z,2.40
2022-11-24T12:13:28.975Z,2.86
2022-11-24T12:16:25.455Z,3.05
2022-11-24T12:19:14.048Z,3.11
2022-11-24T12:21:55.483Z,3.37
2022-11-24T12:24:50.903Z,3.00
2022-11-24T12:27:51.390Z,2.70
2022-11-24T12:30:25.488Z,2.43
2022-11-24T12:33:14.714Z,2.55
2022-11-24T12:36:10.656Z,2.69
2022-11-24T12:38:56.052Z,2.07
2022-11-24T12:42:18.181Z,2.50
2022-11-24T12:44:57.390Z,2.33
2022-11-24T12:47:53.115Z,2.44
2022-11-24T12:50:29.829Z,2.64
2022-11-24T12:53:18.877Z,2.39
2022-11-24T12:55:54.545Z,2.16
2022-11-24T12:58:50.837Z,2.11
2022-11-24T13:01:36.237Z,2.30
2022-11-24T13:04:30.921Z,2.07
2022-11-24T13:07:14.091Z,2.46
2022-11-24T13:10:40.433Z,2.28
2022-11-24T13:13:18.299Z,2.03
2022-11-24T13:16:28.537Z,2.31
2022-11-24T13:18:55.225Z,2.03
2022-11-24T13:21:28.351Z,2.13
2022-11-24T13:24:05.922Z,2.32
2022-11-24T13:26:42.117Z,2.31
2022-11-24T13:29:27.454Z,1.90
2022-11-24T13:32:03.201Z,2.56
2022-11-24T13:34:39.422Z,2.57
2022-11-24T13:37:31.868Z,2.73
2022-11-24T13:40:12.264Z,2.52
2022-11-24T13:42:54.788Z,2.47
2022-11-24T13:45:39.948Z,2.35
2022-11-24T13:48:19.453Z,2.44
2022-11-24T13:50:52.547Z,2.33
2022-11-24T13:53:40.985Z,2.08
2022-11-24T13:56:13.928Z,2.30
2022-11-24T13:59:00.434Z,2.58
2022-11-24T14:01:37.115Z,2.72
2022-11-24T14:04:33.288Z,2.48
2022-11-24T14:07:14.940Z,2.49
2022-11-24T14:09:52.090Z,2.30
2022-11-24T14:12:26.623Z,2.29
2022-11-24T14:15:23.675Z,2.15
2022-11-24T14:17:56.494Z,2.02
2022-11-24T14:20:30.974Z,1.96
2022-11-24T14:23:10.098Z,1.96
2022-11-24T14:25:53.539Z,2.13
2022-11-24T14:28:29.203Z,2.04
2022-11-24T14:31:20.803Z,2.20
2022-11-24T14:34:16.667Z,2.00
2022-11-24T14:36:52.285Z,2.02
2022-11-24T14:39:27.497Z,2.25
2022-11-24T14:42:04.916Z,2.33
2022-11-24T14:44:40.639Z,2.20
2022-11-24T14:47:30.550Z,2.13
2022-11-24T14:50:15.323Z,2.15
2022-11-24T14:52:57.775Z,2.06
2022-11-24T14:55:33.505Z,1.96
2022-11-24T14:58:31.871Z,2.28
2022-11-24T15:01:18.638Z,2.26
2022-11-24T15:07:28.392Z,2.36
2022-11-24T15:10:07.057Z,1.98
2022-11-24T15:12:51.465Z,2.37
2022-11-24T15:15:35.505Z,3.39
2022-11-24T15:18:28.965Z,3.80
2022-11-24T15:21:03.606Z,2.92
2022-11-24T15:23:37.484Z,2.58
2022-11-24T15:26:11.778Z,2.62
2022-11-24T15:28:48.394Z,2.42
2022-11-24T15:31:24.738Z,2.45
2022-11-24T15:33:59.136Z,2.20
2022-11-24T15:36:34.679Z,2.34
2022-11-24T15:39:07.941Z,2.31
2022-11-24T15:41:45.269Z,2.25
2022-11-24T15:44:19.722Z,2.47
2022-11-24T15:46:57.126Z,2.49
2022-11-24T15:49:30.997Z,2.36
2022-11-24T15:52:05.810Z,2.58
2022-11-24T15:54:40.840Z,2.93
2022-11-24T15:57:15.802Z,2.65
2022-11-24T15:59:49.473Z,2.81
2022-11-24T16:02:24.784Z,2.55
2022-11-24T16:04:58.303Z,2.37
2022-11-24T16:07:32.702Z,2.73
2022-11-24T16:10:36.056Z,2.46
2022-11-24T16:13:10.205Z,2.29
2022-11-24T16:15:45.806Z,2.24
2022-11-24T16:18:20.187Z,2.44
2022-11-24T16:20:58.187Z,2.44
2022-11-24T16:23:32.282Z,4.84
2022-11-24T16:26:06.943Z,9.29
2022-11-24T16:28:41.383Z,12.65
2022-11-24T16:31:16.773Z,15.24
2022-11-24T16:33:50.506Z,16.55
2022-11-24T16:36:25.587Z,16.02
2022-11-24T16:38:59.959Z,11.40
2022-11-24T16:41:34.040Z,7.22
2022-11-24T16:44:07.813Z,5.57
2022-11-24T16:46:43.147Z,4.26
2022-11-24T16:49:18.605Z,3.81
2022-11-24T16:51:55.040Z,4.12
2022-11-24T16:54:28.479Z,4.93
2022-11-24T16:57:14.506Z,5.00
2022-11-24T16:59:48.650Z,5.37
2022-11-24T17:02:24.283Z,4.67
2022-11-24T17:04:58.846Z,4.93
2022-11-24T17:07:40.691Z,4.77
2022-11-24T17:10:15.499Z,4.57
2022-11-24T17:12:59.404Z,4.36
2022-11-24T17:15:48.414Z,4.42
2022-11-24T17:18:45.069Z,3.77
2022-11-24T17:21:33.786Z,3.10
2022-11-24T17:24:26.261Z,3.00
2022-11-24T17:27:18.716Z,3.26
2022-11-24T17:30:11.589Z,3.57
2022-11-24T17:33:04.165Z,2.80
2022-11-24T17:36:01.492Z,2.87
2022-11-24T17:38:53.944Z,3.43
2022-11-24T17:41:46.429Z,5.83
2022-11-24T17:44:38.885Z,5.65
2022-11-24T17:47:31.377Z,5.05
2022-11-24T17:50:26.009Z,4.93
2022-11-24T17:53:19.102Z,5.39
2022-11-24T17:56:13.892Z,6.12
2022-11-24T17:59:06.352Z,5.56
2022-11-24T18:01:58.861Z,4.37
2022-11-24T18:04:51.349Z,3.72
2022-11-24T18:07:43.826Z,3.67
2022-11-24T18:10:36.303Z,3.31
2022-11-24T18:13:54.816Z,3.86
2022-11-24T18:16:42.712Z,4.01
2022-11-24T18:19:30.879Z,3.73
2022-11-24T18:22:05.232Z,3.60
2022-11-24T18:24:38.287Z,3.73
2022-11-24T18:27:11.596Z,3.73
2022-11-24T18:29:44.503Z,4.43
2022-11-24T18:32:17.428Z,6.12
2022-11-24T18:34:50.685Z,6.19
2022-11-24T18:37:23.506Z,5.47
2022-11-24T18:39:56.468Z,6.45
2022-11-24T18:42:29.673Z,6.90
2022-11-24T18:45:02.484Z,6.61
2022-11-24T18:47:35.407Z,6.28
2022-11-24T18:50:08.869Z,6.57
2022-11-24T18:52:43.049Z,8.42
2022-11-24T18:55:16.203Z,8.96
2022-11-24T18:57:49.431Z,8.44
2022-11-24T19:00:22.575Z,8.93
2022-11-24T19:06:23.682Z,11.34
2022-11-24T19:08:56.867Z,9.66
2022-11-24T19:11:36.033Z,8.17
2022-11-24T19:14:16.485Z,8.04
2022-11-24T19:16:51.323Z,6.84
2022-11-24T19:19:24.534Z,5.86
2022-11-24T19:21:58.358Z,5.63
2022-11-24T19:24:31.249Z,5.33
2022-11-24T19:27:04.131Z,5.74
2022-11-24T19:29:42.849Z,5.43
2022-11-24T19:32:17.653Z,4.94
2022-11-24T19:34:51.227Z,4.84
2022-11-24T19:37:24.293Z,4.82
2022-11-24T19:39:57.523Z,4.66
2022-11-24T19:42:31.642Z,4.28
2022-11-24T19:45:05.083Z,4.01
2022-11-24T19:47:38.739Z,3.72
2022-11-24T19:50:16.024Z,4.06
2022-11-24T19:52:49.632Z,4.65
2022-11-24T19:55:23.738Z,5.84
2022-11-24T19:57:57.815Z,6.45
2022-11-24T20:00:32.175Z,8.68
2022-11-24T20:03:05.532Z,8.89
2022-11-24T20:05:40.170Z,6.82
2022-11-24T20:08:14.412Z,4.60
2022-11-24T20:10:48.485Z,3.56
2022-11-24T20:13:21.842Z,3.90
2022-11-24T20:15:56.619Z,4.06
2022-11-24T20:18:30.965Z,4.34
2022-11-24T20:21:08.227Z,4.29
2022-11-24T20:23:42.567Z,4.39
2022-11-24T20:26:20.026Z,4.16
2022-11-24T20:28:56.990Z,4.10
2022-11-24T20:31:40.407Z,4.35
2022-11-24T20:34:14.447Z,4.27
2022-11-24T20:36:47.822Z,4.54
2022-11-24T20:39:24.861Z,4.39
2022-11-24T20:41:57.814Z,3.91
2022-11-24T20:44:31.651Z,3.98
2022-11-24T20:47:05.293Z,4.38
2022-11-24T20:49:38.544Z,4.03
2022-11-24T20:52:12.881Z,3.79
2022-11-24T20:54:45.819Z,3.33
2022-11-24T20:57:18.664Z,3.09
2022-11-24T20:59:53.611Z,3.06
2022-11-24T21:02:26.748Z,3.31
2022-11-24T21:05:00.127Z,2.96
2022-11-24T21:07:33.203Z,2.94
2022-11-24T21:10:07.082Z,2.94
2022-11-24T21:12:41.033Z,3.06
2022-11-24T21:15:14.949Z,3.06
2022-11-24T21:17:48.713Z,3.16
2022-11-24T21:20:25.716Z,3.20
2022-11-24T21:22:59.063Z,3.35
2022-11-24T21:25:33.698Z,3.76
2022-11-24T21:28:07.844Z,3.65
2022-11-24T21:30:41.536Z,3.33
2022-11-24T21:33:15.744Z,3.71
2022-11-24T21:35:53.001Z,3.54
2022-11-24T21:38:30.021Z,3.59
2022-11-24T21:41:06.144Z,5.68
2022-11-24T21:43:39.923Z,5.21
2022-11-24T21:46:16.306Z,5.30
2022-11-24T21:48:50.424Z,4.76
2022-11-24T21:51:24.208Z,4.08
2022-11-24T21:54:03.202Z,3.81
2022-11-24T21:56:36.962Z,3.60
2022-11-24T21:59:11.169Z,3.45
2022-11-24T22:01:46.403Z,3.64
2022-11-24T22:04:31.258Z,3.39
2022-11-24T22:07:09.885Z,3.57
2022-11-24T22:09:50.706Z,3.60
2022-11-24T22:12:43.197Z,3.93
2022-11-24T22:15:36.656Z,3.96
2022-11-24T22:18:34.560Z,3.91
2022-11-24T22:21:27.041Z,3.77
2022-11-24T22:24:22.995Z,4.01
2022-11-24T22:27:19.463Z,3.84
2022-11-24T22:30:12.086Z,3.90
2022-11-24T22:33:04.537Z,4.07
2022-11-24T22:35:58.224Z,4.29
2022-11-24T22:39:12.171Z,4.31
2022-11-24T22:42:04.732Z,3.94
2022-11-24T22:44:57.373Z,4.29
2022-11-24T22:47:54.036Z,4.81
2022-11-24T22:50:46.592Z,4.53
2022-11-24T22:53:40.085Z,4.61
2022-11-24T22:56:33.750Z,4.67
2022-11-24T22:59:26.185Z,4.28
2022-11-24T23:02:18.681Z,4.75
2022-11-24T23:05:11.149Z,5.17
2022-11-24T23:08:03.792Z,7.54
2022-11-24T23:11:06.255Z,7.79
2022-11-24T23:13:59.269Z,6.80
2022-11-24T23:16:54.064Z,6.57
2022-11-24T23:19:46.572Z,5.55
2022-11-24T23:22:39.037Z,5.77
2022-11-24T23:25:33.901Z,5.33
2022-11-24T23:28:26.393Z,5.03
2022-11-24T23:31:23.060Z,4.98
2022-11-24T23:34:15.534Z,4.99
2022-11-24T23:37:07.990Z,4.63
2022-11-24T23:40:00.472Z,4.70
2022-11-24T23:42:52.971Z,4.35
2022-11-24T23:45:45.494Z,4.32
2022-11-24T23:48:39.033Z,4.71
2022-11-24T23:51:33.252Z,4.49
2022-11-24T23:54:25.721Z,4.26
2022-11-24T23:57:18.175Z,4.43
